sensor_id;sensor_type;location;lat;lon;timestamp;temperature;humidity
13694;DHT22;6919;52.344;14.518;2024-03-08T00:01:11;-0.50;99.90
13694;DHT22;6919;52.344;14.518;2024-03-08T00:03:39;-0.60;99.90
13694;DHT22;6919;52.344;14.518;2024-03-08T00:06:08;-0.60;99.90
13694;DHT22;6919;52.344;14.518;2024-03-08T00:08:36;-0.60;99.90
13694;DHT22;6919;52.344;14.518;2024-03-08T00:11:06;-0.50;99.90
13694;DHT22;6919;52.344;14.518;2024-03-08T00:13:35;-0.70;99.90
13694;DHT22;6919;52.344;14.518;2024-03-08T00:16:04;-0.70;99.90
13694;DHT22;6919;52.344;14.518;2024-03-08T00:18:32;-0.50;99.90
13694;DHT22;6919;52.344;14.518;2024-03-08T00:21:01;-0.30;99.90
13694;DHT22;6919;52.344;14.518;2024-03-08T00:23:29;-0.80;99.90
13694;DHT22;6919;52.344;14.518;2024-03-08T00:26:00;-0.70;99.90
13694;DHT22;6919;52.344;14.518;2024-03-08T00:28:31;-0.70;99.90
13694;DHT22;6919;52.344;14.518;2024-03-08T00:31:01;-0.90;99.90
13694;DHT22;6919;52.344;14.518;2024-03-08T00:33:29;-0.60;99.90
13694;DHT22;6919;52.344;14.518;2024-03-08T00:35:57;-0.80;99.90
13694;DHT22;6919;52.344;14.518;2024-03-08T00:38:26;-0.80;99.90
13694;DHT22;6919;52.344;14.518;2024-03-08T00:40:54;-0.80;99.90
13694;DHT22;6919;52.344;14.518;2024-03-08T00:43:23;-0.70;99.90
13694;DHT22;6919;52.344;14.518;2024-03-08T00:45:53;-1.00;99.90
13694;DHT22;6919;52.344;14.518;2024-03-08T00:48:22;-0.80;99.90
13694;DHT22;6919;52.344;14.518;2024-03-08T00:50:51;-1.00;99.90
13694;DHT22;6919;52.344;14.518;2024-03-08T00:53:19;-0.80;99.90
13694;DHT22;6919;52.344;14.518;2024-03-08T00:55:47;-0.90;99.90
13694;DHT22;6919;52.344;14.518;2024-03-08T00:58:16;-0.70;99.90
13694;DHT22;6919;52.344;14.518;2024-03-08T01:00:44;-1.20;99.90
13694;DHT22;6919;52.344;14.518;2024-03-08T01:03:14;-1.10;99.90
13694;DHT22;6919;52.344;14.518;2024-03-08T01:05:42;-0.70;99.90
13694;DHT22;6919;52.344;14.518;2024-03-08T01:08:10;-1.10;99.90
13694;DHT22;6919;52.344;14.518;2024-03-08T01:10:38;-0.80;99.90
13694;DHT22;6919;52.344;14.518;2024-03-08T01:13:07;-0.80;99.90
13694;DHT22;6919;52.344;14.518;2024-03-08T01:15:36;-1.20;99.90
13694;DHT22;6919;52.344;14.518;2024-03-08T01:18:08;-1.20;99.90
13694;DHT22;6919;52.344;14.518;2024-03-08T01:20:38;-1.00;99.90
13694;DHT22;6919;52.344;14.518;2024-03-08T01:23:07;-1.10;99.90
13694;DHT22;6919;52.344;14.518;2024-03-08T01:25:35;-1.10;99.90
13694;DHT22;6919;52.344;14.518;2024-03-08T01:28:04;-1.10;99.90
13694;DHT22;6919;52.344;14.518;2024-03-08T01:30:33;-1.20;99.90
13694;DHT22;6919;52.344;14.518;2024-03-08T01:33:04;-1.10;99.90
13694;DHT22;6919;52.344;14.518;2024-03-08T01:35:32;-0.90;99.90
13694;DHT22;6919;52.344;14.518;2024-03-08T01:38:02;-0.80;99.90
13694;DHT22;6919;52.344;14.518;2024-03-08T01:40:31;-0.70;99.90
13694;DHT22;6919;52.344;14.518;2024-03-08T01:43:16;-0.70;99.90
13694;DHT22;6919;52.344;14.518;2024-03-08T01:45:46;-0.70;99.90
13694;DHT22;6919;52.344;14.518;2024-03-08T01:48:15;-0.60;99.90
13694;DHT22;6919;52.344;14.518;2024-03-08T01:50:45;-1.00;99.90
13694;DHT22;6919;52.344;14.518;2024-03-08T01:53:18;-1.00;99.90
13694;DHT22;6919;52.344;14.518;2024-03-08T01:55:48;-1.20;99.90
13694;DHT22;6919;52.344;14.518;2024-03-08T01:58:18;-1.20;99.90
13694;DHT22;6919;52.344;14.518;2024-03-08T02:00:49;-1.00;99.90
13694;DHT22;6919;52.344;14.518;2024-03-08T02:03:17;-0.90;99.90
13694;DHT22;6919;52.344;14.518;2024-03-08T02:05:46;-1.20;99.90
13694;DHT22;6919;52.344;14.518;2024-03-08T02:08:16;-1.30;99.90
13694;DHT22;6919;52.344;14.518;2024-03-08T02:10:45;-1.30;99.90
13694;DHT22;6919;52.344;14.518;2024-03-08T02:13:13;-1.30;99.90
13694;DHT22;6919;52.344;14.518;2024-03-08T02:15:52;-1.30;99.90
13694;DHT22;6919;52.344;14.518;2024-03-08T02:18:22;-0.90;99.90
13694;DHT22;6919;52.344;14.518;2024-03-08T02:20:53;-1.10;99.90
13694;DHT22;6919;52.344;14.518;2024-03-08T02:23:22;-1.00;99.90
13694;DHT22;6919;52.344;14.518;2024-03-08T02:25:52;-1.30;99.90
13694;DHT22;6919;52.344;14.518;2024-03-08T02:28:21;-1.00;99.90
13694;DHT22;6919;52.344;14.518;2024-03-08T02:30:50;-1.40;99.90
13694;DHT22;6919;52.344;14.518;2024-03-08T02:33:22;-1.30;99.90
13694;DHT22;6919;52.344;14.518;2024-03-08T02:35:52;-1.50;99.90
13694;DHT22;6919;52.344;14.518;2024-03-08T02:38:22;-1.40;99.90
13694;DHT22;6919;52.344;14.518;2024-03-08T02:40:53;-1.50;99.90
13694;DHT22;6919;52.344;14.518;2024-03-08T02:43:22;-1.50;99.90
13694;DHT22;6919;52.344;14.518;2024-03-08T02:45:51;-1.60;99.90
13694;DHT22;6919;52.344;14.518;2024-03-08T02:48:20;-1.70;99.90
13694;DHT22;6919;52.344;14.518;2024-03-08T02:50:49;-1.80;99.90
13694;DHT22;6919;52.344;14.518;2024-03-08T02:53:20;-1.70;99.90
13694;DHT22;6919;52.344;14.518;2024-03-08T02:55:49;-1.80;99.90
13694;DHT22;6919;52.344;14.518;2024-03-08T02:58:17;-1.80;99.90
13694;DHT22;6919;52.344;14.518;2024-03-08T03:00:45;-1.90;99.90
13694;DHT22;6919;52.344;14.518;2024-03-08T03:03:13;-1.80;99.90
13694;DHT22;6919;52.344;14.518;2024-03-08T03:05:42;-2.00;99.90
13694;DHT22;6919;52.344;14.518;2024-03-08T03:08:15;-1.60;99.90
13694;DHT22;6919;52.344;14.518;2024-03-08T03:10:45;-2.10;99.90
13694;DHT22;6919;52.344;14.518;2024-03-08T03:13:14;-2.10;99.90
13694;DHT22;6919;52.344;14.518;2024-03-08T03:15:42;-2.00;99.90
13694;DHT22;6919;52.344;14.518;2024-03-08T03:18:11;-2.00;99.90
13694;DHT22;6919;52.344;14.518;2024-03-08T03:20:39;-1.80;99.90
13694;DHT22;6919;52.344;14.518;2024-03-08T03:23:09;-1.70;99.90
13694;DHT22;6919;52.344;14.518;2024-03-08T03:25:42;-1.50;99.90
13694;DHT22;6919;52.344;14.518;2024-03-08T03:28:12;-1.90;99.90
13694;DHT22;6919;52.344;14.518;2024-03-08T03:30:42;-1.80;99.90
13694;DHT22;6919;52.344;14.518;2024-03-08T03:33:10;-1.80;99.90
13694;DHT22;6919;52.344;14.518;2024-03-08T03:35:39;-1.90;99.90
13694;DHT22;6919;52.344;14.518;2024-03-08T03:38:09;-1.70;99.90
13694;DHT22;6919;52.344;14.518;2024-03-08T03:40:38;-1.70;99.90
13694;DHT22;6919;52.344;14.518;2024-03-08T03:43:07;-1.80;99.90
13694;DHT22;6919;52.344;14.518;2024-03-08T03:45:39;-2.00;99.90
13694;DHT22;6919;52.344;14.518;2024-03-08T03:48:08;-1.80;99.90
13694;DHT22;6919;52.344;14.518;2024-03-08T03:50:38;-2.00;99.90
13694;DHT22;6919;52.344;14.518;2024-03-08T03:53:08;-1.80;99.90
13694;DHT22;6919;52.344;14.518;2024-03-08T03:55:37;-2.10;99.90
13694;DHT22;6919;52.344;14.518;2024-03-08T03:58:07;-2.00;99.90
13694;DHT22;6919;52.344;14.518;2024-03-08T04:00:39;-2.00;99.90
13694;DHT22;6919;52.344;14.518;2024-03-08T04:03:08;-2.10;99.90
13694;DHT22;6919;52.344;14.518;2024-03-08T04:05:36;-2.10;99.90
13694;DHT22;6919;52.344;14.518;2024-03-08T04:08:05;-2.20;99.90
13694;DHT22;6919;52.344;14.518;2024-03-08T04:10:33;-2.20;99.90
13694;DHT22;6919;52.344;14.518;2024-03-08T04:13:01;-2.30;99.90
13694;DHT22;6919;52.344;14.518;2024-03-08T04:15:30;-2.30;99.90
13694;DHT22;6919;52.344;14.518;2024-03-08T04:18:00;-2.30;99.90
13694;DHT22;6919;52.344;14.518;2024-03-08T04:20:29;-2.50;99.90
13694;DHT22;6919;52.344;14.518;2024-03-08T04:22:57;-2.30;99.90
13694;DHT22;6919;52.344;14.518;2024-03-08T04:25:25;-2.30;99.90
13694;DHT22;6919;52.344;14.518;2024-03-08T04:27:54;-2.30;99.90
13694;DHT22;6919;52.344;14.518;2024-03-08T04:30:22;-2.30;99.90
13694;DHT22;6919;52.344;14.518;2024-03-08T04:32:51;-2.30;99.90
13694;DHT22;6919;52.344;14.518;2024-03-08T04:35:21;-2.30;99.90
13694;DHT22;6919;52.344;14.518;2024-03-08T04:37:49;-2.20;99.90
13694;DHT22;6919;52.344;14.518;2024-03-08T04:40:17;-2.30;99.90
13694;DHT22;6919;52.344;14.518;2024-03-08T04:42:46;-2.30;99.90
13694;DHT22;6919;52.344;14.518;2024-03-08T04:45:18;-2.40;99.90
13694;DHT22;6919;52.344;14.518;2024-03-08T04:47:46;-2.50;99.90
13694;DHT22;6919;52.344;14.518;2024-03-08T04:50:15;-2.50;99.90
13694;DHT22;6919;52.344;14.518;2024-03-08T04:52:44;-2.50;99.90
13694;DHT22;6919;52.344;14.518;2024-03-08T04:55:12;-2.30;99.90
13694;DHT22;6919;52.344;14.518;2024-03-08T04:57:41;-2.40;99.90
13694;DHT22;6919;52.344;14.518;2024-03-08T05:00:11;-2.50;99.90
13694;DHT22;6919;52.344;14.518;2024-03-08T05:02:41;-2.50;99.90
13694;DHT22;6919;52.344;14.518;2024-03-08T05:05:11;-2.60;99.90
13694;DHT22;6919;52.344;14.518;2024-03-08T05:07:39;-2.60;99.90
13694;DHT22;6919;52.344;14.518;2024-03-08T05:10:09;-2.70;99.90
13694;DHT22;6919;52.344;14.518;2024-03-08T05:12:38;-2.70;99.90
13694;DHT22;6919;52.344;14.518;2024-03-08T05:15:07;-2.80;99.90
13694;DHT22;6919;52.344;14.518;2024-03-08T05:17:36;-2.80;99.90
13694;DHT22;6919;52.344;14.518;2024-03-08T05:20:04;-2.90;99.90
13694;DHT22;6919;52.344;14.518;2024-03-08T05:22:35;-2.80;99.90
13694;DHT22;6919;52.344;14.518;2024-03-08T05:25:03;-2.70;99.90
13694;DHT22;6919;52.344;14.518;2024-03-08T05:27:36;-2.70;99.90
13694;DHT22;6919;52.344;14.518;2024-03-08T05:30:05;-2.50;99.90
13694;DHT22;6919;52.344;14.518;2024-03-08T05:32:35;-2.40;99.90
13694;DHT22;6919;52.344;14.518;2024-03-08T05:35:04;-2.50;99.90
13694;DHT22;6919;52.344;14.518;2024-03-08T05:37:34;-2.60;99.90
13694;DHT22;6919;52.344;14.518;2024-03-08T05:40:02;-2.60;99.90
13694;DHT22;6919;52.344;14.518;2024-03-08T05:42:43;-2.60;99.90
13694;DHT22;6919;52.344;14.518;2024-03-08T05:45:11;-2.60;99.90
13694;DHT22;6919;52.344;14.518;2024-03-08T05:47:41;-2.60;99.90
13694;DHT22;6919;52.344;14.518;2024-03-08T05:50:10;-2.60;99.90
13694;DHT22;6919;52.344;14.518;2024-03-08T05:52:38;-2.50;99.90
13694;DHT22;6919;52.344;14.518;2024-03-08T05:55:07;-2.60;99.90
13694;DHT22;6919;52.344;14.518;2024-03-08T05:57:37;-2.60;99.90
13694;DHT22;6919;52.344;14.518;2024-03-08T06:00:09;-2.40;99.90
13694;DHT22;6919;52.344;14.518;2024-03-08T06:02:39;-2.20;99.90
13694;DHT22;6919;52.344;14.518;2024-03-08T06:05:09;-1.90;99.90
13694;DHT22;6919;52.344;14.518;2024-03-08T06:07:38;-2.10;99.90
13694;DHT22;6919;52.344;14.518;2024-03-08T06:10:08;-2.20;99.90
13694;DHT22;6919;52.344;14.518;2024-03-08T06:12:39;-2.10;99.90
13694;DHT22;6919;52.344;14.518;2024-03-08T06:15:10;-2.10;99.90
13694;DHT22;6919;52.344;14.518;2024-03-08T06:17:41;-2.10;99.90
13694;DHT22;6919;52.344;14.518;2024-03-08T06:20:11;-2.10;99.90
13694;DHT22;6919;52.344;14.518;2024-03-08T06:22:40;-2.00;99.90
13694;DHT22;6919;52.344;14.518;2024-03-08T06:25:09;-2.00;99.90
13694;DHT22;6919;52.344;14.518;2024-03-08T06:27:40;-1.90;99.90
13694;DHT22;6919;52.344;14.518;2024-03-08T06:30:11;-1.70;99.90
13694;DHT22;6919;52.344;14.518;2024-03-08T06:32:42;-1.60;99.90
13694;DHT22;6919;52.344;14.518;2024-03-08T06:35:11;-1.40;99.90
13694;DHT22;6919;52.344;14.518;2024-03-08T06:37:40;-1.10;99.90
13694;DHT22;6919;52.344;14.518;2024-03-08T06:40:11;-1.30;99.90
13694;DHT22;6919;52.344;14.518;2024-03-08T06:42:41;-1.30;99.90
13694;DHT22;6919;52.344;14.518;2024-03-08T06:45:11;-1.30;99.90
13694;DHT22;6919;52.344;14.518;2024-03-08T06:47:42;-1.20;99.90
13694;DHT22;6919;52.344;14.518;2024-03-08T06:50:10;-0.80;99.90
13694;DHT22;6919;52.344;14.518;2024-03-08T06:52:39;-0.60;99.90
13694;DHT22;6919;52.344;14.518;2024-03-08T06:55:09;-0.50;99.90
13694;DHT22;6919;52.344;14.518;2024-03-08T06:57:39;0.00;99.90
13694;DHT22;6919;52.344;14.518;2024-03-08T07:00:09;0.40;99.90
13694;DHT22;6919;52.344;14.518;2024-03-08T07:02:46;0.40;99.90
13694;DHT22;6919;52.344;14.518;2024-03-08T07:05:16;0.40;99.90
13694;DHT22;6919;52.344;14.518;2024-03-08T07:07:45;0.80;99.90
13694;DHT22;6919;52.344;14.518;2024-03-08T07:10:15;1.00;99.90
13694;DHT22;6919;52.344;14.518;2024-03-08T07:12:43;1.00;99.90
13694;DHT22;6919;52.344;14.518;2024-03-08T07:15:15;1.60;99.90
13694;DHT22;6919;52.344;14.518;2024-03-08T07:17:46;1.10;99.90
13694;DHT22;6919;52.344;14.518;2024-03-08T07:20:15;1.40;99.90
13694;DHT22;6919;52.344;14.518;2024-03-08T07:22:45;1.70;99.90
13694;DHT22;6919;52.344;14.518;2024-03-08T07:25:17;2.00;99.90
13694;DHT22;6919;52.344;14.518;2024-03-08T07:27:49;2.00;99.90
13694;DHT22;6919;52.344;14.518;2024-03-08T07:30:20;2.10;99.90
13694;DHT22;6919;52.344;14.518;2024-03-08T07:33:07;2.10;99.90
13694;DHT22;6919;52.344;14.518;2024-03-08T07:35:48;2.00;99.90
13694;DHT22;6919;52.344;14.518;2024-03-08T07:38:17;2.70;99.90
13694;DHT22;6919;52.344;14.518;2024-03-08T07:40:49;2.50;99.90
13694;DHT22;6919;52.344;14.518;2024-03-08T07:43:17;2.60;99.90
13694;DHT22;6919;52.344;14.518;2024-03-08T07:45:47;2.70;99.90
13694;DHT22;6919;52.344;14.518;2024-03-08T07:48:15;2.50;99.90
13694;DHT22;6919;52.344;14.518;2024-03-08T07:50:44;2.80;99.90
13694;DHT22;6919;52.344;14.518;2024-03-08T07:53:13;3.50;99.90
13694;DHT22;6919;52.344;14.518;2024-03-08T07:55:42;3.20;99.90
13694;DHT22;6919;52.344;14.518;2024-03-08T07:58:11;3.30;99.90
13694;DHT22;6919;52.344;14.518;2024-03-08T08:00:40;3.50;99.90
13694;DHT22;6919;52.344;14.518;2024-03-08T08:03:11;3.70;99.90
13694;DHT22;6919;52.344;14.518;2024-03-08T08:05:40;3.70;99.90
13694;DHT22;6919;52.344;14.518;2024-03-08T08:08:08;3.80;99.90
13694;DHT22;6919;52.344;14.518;2024-03-08T08:10:38;3.60;99.90
13694;DHT22;6919;52.344;14.518;2024-03-08T08:13:07;4.20;99.90
13694;DHT22;6919;52.344;14.518;2024-03-08T08:15:35;3.80;99.90
13694;DHT22;6919;52.344;14.518;2024-03-08T08:18:04;3.90;99.90
13694;DHT22;6919;52.344;14.518;2024-03-08T08:20:35;3.90;99.90
13694;DHT22;6919;52.344;14.518;2024-03-08T08:23:04;3.40;99.90
13694;DHT22;6919;52.344;14.518;2024-03-08T08:25:32;3.70;99.90
13694;DHT22;6919;52.344;14.518;2024-03-08T08:28:02;4.00;99.90
13694;DHT22;6919;52.344;14.518;2024-03-08T08:30:31;4.30;99.90
13694;DHT22;6919;52.344;14.518;2024-03-08T08:33:01;5.20;99.90
13694;DHT22;6919;52.344;14.518;2024-03-08T08:35:29;4.10;99.90
13694;DHT22;6919;52.344;14.518;2024-03-08T08:37:59;4.20;99.90
13694;DHT22;6919;52.344;14.518;2024-03-08T08:40:27;4.60;99.90
13694;DHT22;6919;52.344;14.518;2024-03-08T08:42:57;4.40;99.90
13694;DHT22;6919;52.344;14.518;2024-03-08T08:45:26;4.70;99.90
13694;DHT22;6919;52.344;14.518;2024-03-08T08:47:55;4.90;99.90
13694;DHT22;6919;52.344;14.518;2024-03-08T08:50:23;4.50;99.90
13694;DHT22;6919;52.344;14.518;2024-03-08T08:52:52;5.00;99.90
13694;DHT22;6919;52.344;14.518;2024-03-08T08:55:22;5.00;99.90
13694;DHT22;6919;52.344;14.518;2024-03-08T08:57:53;5.20;99.90
13694;DHT22;6919;52.344;14.518;2024-03-08T09:00:23;4.80;95.60
13694;DHT22;6919;52.344;14.518;2024-03-08T09:02:54;6.00;82.20
13694;DHT22;6919;52.344;14.518;2024-03-08T09:05:25;5.80;67.40
13694;DHT22;6919;52.344;14.518;2024-03-08T09:07:54;6.20;68.30
13694;DHT22;6919;52.344;14.518;2024-03-08T09:10:24;5.80;58.00
13694;DHT22;6919;52.344;14.518;2024-03-08T09:12:57;6.40;56.70
13694;DHT22;6919;52.344;14.518;2024-03-08T09:15:26;5.50;52.20
13694;DHT22;6919;52.344;14.518;2024-03-08T09:17:55;6.30;52.20
13694;DHT22;6919;52.344;14.518;2024-03-08T09:20:24;5.80;52.90
13694;DHT22;6919;52.344;14.518;2024-03-08T09:22:52;6.00;49.40
13694;DHT22;6919;52.344;14.518;2024-03-08T09:25:22;6.20;49.80
13694;DHT22;6919;52.344;14.518;2024-03-08T09:27:51;6.40;49.70
13694;DHT22;6919;52.344;14.518;2024-03-08T09:30:21;6.60;48.40
13694;DHT22;6919;52.344;14.518;2024-03-08T09:32:50;7.00;44.20
13694;DHT22;6919;52.344;14.518;2024-03-08T09:35:20;6.50;43.90
13694;DHT22;6919;52.344;14.518;2024-03-08T09:37:48;6.60;43.30
13694;DHT22;6919;52.344;14.518;2024-03-08T09:40:18;6.70;41.30
13694;DHT22;6919;52.344;14.518;2024-03-08T09:42:48;6.70;40.70
13694;DHT22;6919;52.344;14.518;2024-03-08T09:45:20;6.90;35.50
13694;DHT22;6919;52.344;14.518;2024-03-08T09:47:50;6.70;33.80
13694;DHT22;6919;52.344;14.518;2024-03-08T09:50:20;7.50;31.90
13694;DHT22;6919;52.344;14.518;2024-03-08T09:52:49;7.00;33.90
13694;DHT22;6919;52.344;14.518;2024-03-08T09:55:18;7.00;32.90
13694;DHT22;6919;52.344;14.518;2024-03-08T09:57:51;7.10;31.90
13694;DHT22;6919;52.344;14.518;2024-03-08T10:00:36;7.10;29.40
13694;DHT22;6919;52.344;14.518;2024-03-08T10:03:04;6.90;29.20
13694;DHT22;6919;52.344;14.518;2024-03-08T10:05:33;7.30;29.60
13694;DHT22;6919;52.344;14.518;2024-03-08T10:08:01;7.10;28.80
13694;DHT22;6919;52.344;14.518;2024-03-08T10:10:33;7.50;31.50
13694;DHT22;6919;52.344;14.518;2024-03-08T10:13:04;7.50;27.90
13694;DHT22;6919;52.344;14.518;2024-03-08T10:15:33;7.50;26.40
13694;DHT22;6919;52.344;14.518;2024-03-08T10:18:05;8.10;26.20
13694;DHT22;6919;52.344;14.518;2024-03-08T10:20:37;7.00;27.00
13694;DHT22;6919;52.344;14.518;2024-03-08T10:23:06;7.60;26.40
13694;DHT22;6919;52.344;14.518;2024-03-08T10:25:38;7.50;25.70
13694;DHT22;6919;52.344;14.518;2024-03-08T10:28:08;7.30;23.10
13694;DHT22;6919;52.344;14.518;2024-03-08T10:30:36;7.60;23.60
13694;DHT22;6919;52.344;14.518;2024-03-08T10:33:05;7.50;21.40
13694;DHT22;6919;52.344;14.518;2024-03-08T10:35:34;7.20;23.70
13694;DHT22;6919;52.344;14.518;2024-03-08T10:38:05;7.70;21.60
13694;DHT22;6919;52.344;14.518;2024-03-08T10:40:39;7.60;19.90
13694;DHT22;6919;52.344;14.518;2024-03-08T10:43:22;7.60;20.80
13694;DHT22;6919;52.344;14.518;2024-03-08T10:46:06;7.50;19.00
13694;DHT22;6919;52.344;14.518;2024-03-08T10:48:50;7.40;20.10
13694;DHT22;6919;52.344;14.518;2024-03-08T10:51:23;7.90;19.00
13694;DHT22;6919;52.344;14.518;2024-03-08T10:53:52;7.40;19.20
13694;DHT22;6919;52.344;14.518;2024-03-08T10:56:25;7.60;18.30
13694;DHT22;6919;52.344;14.518;2024-03-08T10:58:56;7.80;16.30
13694;DHT22;6919;52.344;14.518;2024-03-08T11:01:24;7.60;18.00
13694;DHT22;6919;52.344;14.518;2024-03-08T11:03:53;7.70;17.20
13694;DHT22;6919;52.344;14.518;2024-03-08T11:06:30;7.50;16.20
13694;DHT22;6919;52.344;14.518;2024-03-08T11:09:11;8.10;17.20
13694;DHT22;6919;52.344;14.518;2024-03-08T11:12:18;8.20;16.00
13694;DHT22;6919;52.344;14.518;2024-03-08T11:14:50;8.10;15.90
13694;DHT22;6919;52.344;14.518;2024-03-08T11:17:44;8.20;13.60
13694;DHT22;6919;52.344;14.518;2024-03-08T11:20:16;7.70;12.40
13694;DHT22;6919;52.344;14.518;2024-03-08T11:22:51;8.40;13.80
13694;DHT22;6919;52.344;14.518;2024-03-08T11:25:34;8.20;12.70
13694;DHT22;6919;52.344;14.518;2024-03-08T11:28:12;8.30;12.60
13694;DHT22;6919;52.344;14.518;2024-03-08T11:31:22;8.30;12.60
13694;DHT22;6919;52.344;14.518;2024-03-08T11:33:52;8.30;12.80
13694;DHT22;6919;52.344;14.518;2024-03-08T11:36:22;8.70;13.20
13694;DHT22;6919;52.344;14.518;2024-03-08T11:38:52;8.80;12.40
13694;DHT22;6919;52.344;14.518;2024-03-08T11:41:23;8.50;12.00
13694;DHT22;6919;52.344;14.518;2024-03-08T11:44:02;9.00;11.40
13694;DHT22;6919;52.344;14.518;2024-03-08T11:46:35;8.70;11.00
13694;DHT22;6919;52.344;14.518;2024-03-08T11:49:03;9.10;11.70
13694;DHT22;6919;52.344;14.518;2024-03-08T11:51:33;9.20;10.30
13694;DHT22;6919;52.344;14.518;2024-03-08T11:54:01;9.30;11.10
13694;DHT22;6919;52.344;14.518;2024-03-08T11:56:30;9.30;10.40
13694;DHT22;6919;52.344;14.518;2024-03-08T11:58:59;9.10;11.10
13694;DHT22;6919;52.344;14.518;2024-03-08T12:01:28;9.30;10.00
13694;DHT22;6919;52.344;14.518;2024-03-08T12:04:00;9.20;8.90
13694;DHT22;6919;52.344;14.518;2024-03-08T12:06:36;9.10;10.60
13694;DHT22;6919;52.344;14.518;2024-03-08T12:09:10;9.50;9.70
13694;DHT22;6919;52.344;14.518;2024-03-08T12:11:39;9.40;8.60
13694;DHT22;6919;52.344;14.518;2024-03-08T12:14:09;9.30;8.90
13694;DHT22;6919;52.344;14.518;2024-03-08T12:16:38;9.20;8.90
13694;DHT22;6919;52.344;14.518;2024-03-08T12:19:08;9.00;7.20
13694;DHT22;6919;52.344;14.518;2024-03-08T12:21:37;9.90;8.30
13694;DHT22;6919;52.344;14.518;2024-03-08T12:24:15;9.30;7.90
13694;DHT22;6919;52.344;14.518;2024-03-08T12:26:46;9.40;6.90
13694;DHT22;6919;52.344;14.518;2024-03-08T12:29:17;9.30;8.80
13694;DHT22;6919;52.344;14.518;2024-03-08T12:31:48;10.00;6.80
13694;DHT22;6919;52.344;14.518;2024-03-08T12:34:19;9.90;7.10
13694;DHT22;6919;52.344;14.518;2024-03-08T12:36:49;9.70;6.40
13694;DHT22;6919;52.344;14.518;2024-03-08T12:39:19;10.20;7.30
13694;DHT22;6919;52.344;14.518;2024-03-08T12:41:54;9.60;7.10
13694;DHT22;6919;52.344;14.518;2024-03-08T12:44:24;9.10;8.20
13694;DHT22;6919;52.344;14.518;2024-03-08T12:46:52;9.50;9.20
13694;DHT22;6919;52.344;14.518;2024-03-08T12:49:23;9.70;8.90
13694;DHT22;6919;52.344;14.518;2024-03-08T12:51:52;9.80;6.60
13694;DHT22;6919;52.344;14.518;2024-03-08T12:54:20;9.90;7.10
13694;DHT22;6919;52.344;14.518;2024-03-08T12:56:51;10.10;6.20
13694;DHT22;6919;52.344;14.518;2024-03-08T12:59:22;10.00;5.20
13694;DHT22;6919;52.344;14.518;2024-03-08T13:01:51;10.00;5.70
13694;DHT22;6919;52.344;14.518;2024-03-08T13:04:21;10.00;5.40
13694;DHT22;6919;52.344;14.518;2024-03-08T13:06:52;10.00;5.10
13694;DHT22;6919;52.344;14.518;2024-03-08T13:09:22;10.00;6.70
13694;DHT22;6919;52.344;14.518;2024-03-08T13:11:54;9.60;6.20
13694;DHT22;6919;52.344;14.518;2024-03-08T13:14:25;10.00;6.30
13694;DHT22;6919;52.344;14.518;2024-03-08T13:16:53;10.20;3.70
13694;DHT22;6919;52.344;14.518;2024-03-08T13:19:23;10.20;3.50
13694;DHT22;6919;52.344;14.518;2024-03-08T13:21:55;10.40;4.60
13694;DHT22;6919;52.344;14.518;2024-03-08T13:24:23;10.80;4.80
13694;DHT22;6919;52.344;14.518;2024-03-08T13:26:51;10.80;4.80
13694;DHT22;6919;52.344;14.518;2024-03-08T13:29:19;10.90;5.30
13694;DHT22;6919;52.344;14.518;2024-03-08T13:31:48;11.40;4.10
13694;DHT22;6919;52.344;14.518;2024-03-08T13:34:19;11.50;3.70
13694;DHT22;6919;52.344;14.518;2024-03-08T13:36:56;11.80;1.20
13694;DHT22;6919;52.344;14.518;2024-03-08T13:39:27;12.10;1.50
13694;DHT22;6919;52.344;14.518;2024-03-08T13:41:58;12.30;1.00
13694;DHT22;6919;52.344;14.518;2024-03-08T13:44:26;12.60;1.00
13694;DHT22;6919;52.344;14.518;2024-03-08T13:46:55;12.50;1.00
13694;DHT22;6919;52.344;14.518;2024-03-08T13:49:25;12.50;1.20
13694;DHT22;6919;52.344;14.518;2024-03-08T13:51:55;12.50;1.00
13694;DHT22;6919;52.344;14.518;2024-03-08T13:54:25;13.30;1.00
13694;DHT22;6919;52.344;14.518;2024-03-08T13:56:58;14.30;1.00
13694;DHT22;6919;52.344;14.518;2024-03-08T13:59:27;14.80;1.00
13694;DHT22;6919;52.344;14.518;2024-03-08T14:01:56;14.90;1.00
13694;DHT22;6919;52.344;14.518;2024-03-08T14:04:25;15.10;1.00
13694;DHT22;6919;52.344;14.518;2024-03-08T14:06:56;14.40;1.00
13694;DHT22;6919;52.344;14.518;2024-03-08T14:09:30;14.40;1.00
13694;DHT22;6919;52.344;14.518;2024-03-08T14:11:58;13.70;1.00
13694;DHT22;6919;52.344;14.518;2024-03-08T14:14:26;14.00;1.00
13694;DHT22;6919;52.344;14.518;2024-03-08T14:16:55;14.00;1.00
13694;DHT22;6919;52.344;14.518;2024-03-08T14:19:25;14.50;1.00
13694;DHT22;6919;52.344;14.518;2024-03-08T14:21:54;14.50;1.00
13694;DHT22;6919;52.344;14.518;2024-03-08T14:24:23;14.60;1.00
13694;DHT22;6919;52.344;14.518;2024-03-08T14:26:52;14.40;1.00
13694;DHT22;6919;52.344;14.518;2024-03-08T14:29:20;14.80;1.00
13694;DHT22;6919;52.344;14.518;2024-03-08T14:31:48;14.40;1.00
13694;DHT22;6919;52.344;14.518;2024-03-08T14:34:17;14.60;1.00
13694;DHT22;6919;52.344;14.518;2024-03-08T14:36:47;14.00;1.00
13694;DHT22;6919;52.344;14.518;2024-03-08T14:39:16;13.90;1.00
13694;DHT22;6919;52.344;14.518;2024-03-08T14:41:48;13.30;1.00
13694;DHT22;6919;52.344;14.518;2024-03-08T14:44:22;14.00;1.00
13694;DHT22;6919;52.344;14.518;2024-03-08T14:46:57;14.60;1.00
13694;DHT22;6919;52.344;14.518;2024-03-08T14:49:25;14.50;1.00
13694;DHT22;6919;52.344;14.518;2024-03-08T14:51:55;14.40;1.00
13694;DHT22;6919;52.344;14.518;2024-03-08T14:54:26;14.10;1.00
13694;DHT22;6919;52.344;14.518;2024-03-08T14:56:55;13.20;1.00
13694;DHT22;6919;52.344;14.518;2024-03-08T14:59:24;13.00;1.00
13694;DHT22;6919;52.344;14.518;2024-03-08T15:01:54;13.00;1.00
13694;DHT22;6919;52.344;14.518;2024-03-08T15:04:22;13.00;1.00
13694;DHT22;6919;52.344;14.518;2024-03-08T15:06:50;12.50;1.00
13694;DHT22;6919;52.344;14.518;2024-03-08T15:09:19;12.80;1.00
13694;DHT22;6919;52.344;14.518;2024-03-08T15:11:49;13.20;1.00
13694;DHT22;6919;52.344;14.518;2024-03-08T15:14:17;13.10;1.00
13694;DHT22;6919;52.344;14.518;2024-03-08T15:16:46;12.80;1.00
13694;DHT22;6919;52.344;14.518;2024-03-08T15:19:16;12.40;1.00
13694;DHT22;6919;52.344;14.518;2024-03-08T15:21:46;11.90;1.00
13694;DHT22;6919;52.344;14.518;2024-03-08T15:24:17;12.00;1.00
13694;DHT22;6919;52.344;14.518;2024-03-08T15:26:49;11.30;1.00
13694;DHT22;6919;52.344;14.518;2024-03-08T15:29:21;12.00;1.00
13694;DHT22;6919;52.344;14.518;2024-03-08T15:31:53;11.60;1.00
13694;DHT22;6919;52.344;14.518;2024-03-08T15:34:22;10.50;1.70
13694;DHT22;6919;52.344;14.518;2024-03-08T15:36:50;10.00;3.50
13694;DHT22;6919;52.344;14.518;2024-03-08T15:39:20;9.60;5.10
13694;DHT22;6919;52.344;14.518;2024-03-08T15:41:51;8.80;5.60
13694;DHT22;6919;52.344;14.518;2024-03-08T15:44:21;9.00;7.10
13694;DHT22;6919;52.344;14.518;2024-03-08T15:46:49;8.60;8.10
13694;DHT22;6919;52.344;14.518;2024-03-08T15:49:18;7.90;8.10
13694;DHT22;6919;52.344;14.518;2024-03-08T15:51:46;9.10;9.30
13694;DHT22;6919;52.344;14.518;2024-03-08T15:54:15;8.40;9.10
13694;DHT22;6919;52.344;14.518;2024-03-08T15:56:43;8.70;9.90
13694;DHT22;6919;52.344;14.518;2024-03-08T15:59:13;7.90;9.50